createdAt,value
2022-11-03T00:02:11.073Z,8.98
2022-11-03T00:04:39.040Z,7.70
2022-11-03T00:07:06.671Z,8.27
2022-11-03T00:09:34.720Z,8.10
2022-11-03T00:12:03.024Z,8.52
2022-11-03T00:14:31.351Z,8.25
2022-11-03T00:16:59.384Z,7.95
2022-11-03T00:19:27.103Z,7.97
2022-11-03T00:21:55.056Z,7.80
2022-11-03T00:24:23.260Z,8.27
2022-11-03T00:26:51.257Z,7.90
2022-11-03T00:29:19.054Z,8.00
2022-11-03T00:31:47.094Z,8.63
2022-11-03T00:34:14.793Z,7.63
2022-11-03T00:36:44.660Z,7.55
2022-11-03T00:39:13.070Z,8.00
2022-11-03T00:41:41.222Z,8.73
2022-11-03T00:44:10.684Z,7.88
2022-11-03T00:46:38.844Z,7.63
2022-11-03T00:49:07.130Z,7.72
2022-11-03T00:51:37.859Z,8.20
2022-11-03T00:54:07.147Z,8.52
2022-11-03T00:56:40.321Z,7.97
2022-11-03T00:59:09.742Z,7.68
2022-11-03T01:01:46.765Z,8.30
2022-11-03T01:04:38.104Z,8.55
2022-11-03T01:07:06.488Z,8.13
2022-11-03T01:09:38.429Z,9.15
2022-11-03T01:12:10.980Z,7.75
2022-11-03T01:14:47.667Z,8.55
2022-11-03T01:17:25.491Z,7.78
2022-11-03T01:19:54.444Z,8.02
2022-11-03T01:22:23.660Z,7.70
2022-11-03T01:24:52.973Z,8.10
2022-11-03T01:27:23.153Z,7.68
2022-11-03T01:29:50.902Z,8.23
2022-11-03T01:32:18.874Z,7.70
2022-11-03T01:34:46.571Z,7.53
2022-11-03T01:37:14.534Z,7.45
2022-11-03T01:39:42.164Z,7.30
2022-11-03T01:42:13.386Z,7.03
2022-11-03T01:44:47.539Z,8.00
2022-11-03T01:47:29.406Z,7.45
2022-11-03T01:50:06.240Z,7.55
2022-11-03T01:52:41.062Z,7.60
2022-11-03T01:55:13.880Z,7.32
2022-11-03T01:57:55.436Z,7.37
2022-11-03T02:00:23.439Z,6.82
2022-11-03T02:02:51.741Z,6.93
2022-11-03T02:05:21.490Z,6.88
2022-11-03T02:07:58.253Z,6.60
2022-11-03T02:10:26.148Z,8.13
2022-11-03T02:12:54.369Z,7.95
2022-11-03T02:15:23.521Z,6.97
2022-11-03T02:17:54.294Z,7.03
2022-11-03T02:20:30.935Z,6.95
2022-11-03T02:23:12.401Z,7.50
2022-11-03T02:25:48.930Z,7.40
2022-11-03T02:28:23.043Z,7.28
2022-11-03T02:30:53.856Z,7.07
2022-11-03T02:33:30.532Z,7.28
2022-11-03T02:36:18.405Z,6.68
2022-11-03T02:39:01.302Z,6.63
2022-11-03T02:41:31.814Z,6.85
2022-11-03T02:44:01.638Z,6.75
2022-11-03T02:46:32.782Z,6.82
2022-11-03T02:49:00.672Z,6.68
2022-11-03T02:51:28.422Z,6.60
2022-11-03T02:54:03.894Z,7.03
2022-11-03T02:56:35.314Z,7.45
2022-11-03T02:59:10.097Z,6.90
2022-11-03T03:01:49.090Z,6.53
2022-11-03T03:04:41.207Z,6.50
2022-11-03T03:07:27.173Z,6.57
2022-11-03T03:10:29.494Z,6.43
2022-11-03T03:12:59.105Z,6.72
2022-11-03T03:15:45.998Z,7.47
2022-11-03T03:18:16.663Z,7.22
2022-11-03T03:21:07.429Z,7.18
2022-11-03T03:23:40.257Z,7.43
2022-11-03T03:26:30.210Z,7.57
2022-11-03T03:29:24.979Z,8.13
2022-11-03T03:31:58.893Z,8.52
2022-11-03T03:34:36.225Z,8.68
2022-11-03T03:37:07.716Z,8.60
2022-11-03T03:39:39.933Z,8.20
2022-11-03T03:42:10.751Z,9.10
2022-11-03T03:44:41.431Z,9.02
2022-11-03T03:47:38.245Z,8.70
2022-11-03T03:50:06.661Z,8.23
2022-11-03T03:52:36.087Z,8.90
2022-11-03T03:55:04.402Z,8.85
2022-11-03T03:57:32.782Z,9.38
2022-11-03T04:00:00.450Z,9.27
2022-11-03T04:02:28.301Z,9.90
2022-11-03T04:04:56.370Z,9.38
2022-11-03T04:07:43.817Z,9.27
2022-11-03T04:10:11.998Z,10.23
2022-11-03T04:13:02.243Z,9.85
2022-11-03T04:15:50.085Z,10.70
2022-11-03T04:18:37.877Z,10.02
2022-11-03T04:21:25.113Z,10.30
2022-11-03T04:23:54.801Z,11.07
2022-11-03T04:26:23.107Z,10.40
2022-11-03T04:28:52.889Z,10.60
2022-11-03T04:31:21.299Z,10.02
2022-11-03T04:33:49.275Z,10.90
2022-11-03T04:36:22.929Z,11.43
2022-11-03T04:41:25.887Z,10.95
2022-11-03T04:43:54.187Z,10.63
2022-11-03T04:46:29.479Z,10.88
2022-11-03T04:49:00.778Z,12.02
2022-11-03T04:51:34.858Z,12.63
2022-11-03T04:54:13.320Z,12.35
2022-11-03T04:56:41.459Z,11.52
2022-11-03T04:59:12.852Z,11.88
2022-11-03T05:01:41.199Z,11.68
2022-11-03T05:04:18.090Z,11.73
2022-11-03T05:06:52.573Z,11.10
2022-11-03T05:09:26.933Z,11.18
2022-11-03T05:11:54.729Z,11.40
2022-11-03T05:14:30.040Z,12.90
2022-11-03T05:16:59.020Z,12.00
2022-11-03T05:19:37.741Z,11.93
2022-11-03T05:22:13.088Z,12.45
2022-11-03T05:24:41.160Z,12.82
2022-11-03T05:27:16.609Z,13.13
2022-11-03T05:29:45.611Z,12.30
2022-11-03T05:32:19.835Z,12.90
2022-11-03T05:34:50.885Z,13.35
2022-11-03T05:37:35.363Z,12.50
2022-11-03T05:40:17.542Z,13.50
2022-11-03T05:42:50.445Z,12.68
2022-11-03T05:45:23.587Z,12.93
2022-11-03T05:47:55.314Z,13.48
2022-11-03T05:50:33.749Z,13.73
2022-11-03T05:53:23.743Z,13.32
2022-11-03T05:55:52.062Z,13.77
2022-11-03T05:58:30.086Z,13.52
2022-11-03T06:00:59.211Z,13.50
2022-11-03T06:03:30.872Z,13.68
2022-11-03T06:06:02.037Z,14.65
2022-11-03T06:08:38.932Z,14.50
2022-11-03T06:11:19.883Z,15.05
2022-11-03T06:13:47.574Z,15.85
2022-11-03T06:16:40.182Z,16.08
2022-11-03T06:19:42.716Z,16.33
2022-11-03T06:22:24.529Z,17.65
2022-11-03T06:24:57.631Z,18.00
2022-11-03T06:27:30.744Z,17.38
2022-11-03T06:30:02.792Z,16.85
2022-11-03T06:32:33.200Z,17.92
2022-11-03T06:35:00.908Z,16.60
2022-11-03T06:37:32.561Z,16.60
2022-11-03T06:40:24.852Z,16.13
2022-11-03T06:42:56.366Z,17.23
2022-11-03T06:45:25.897Z,15.70
2022-11-03T06:47:54.617Z,16.48
2022-11-03T06:50:44.751Z,15.63
2022-11-03T06:53:18.581Z,15.95
2022-11-03T06:55:47.411Z,16.40
2022-11-03T06:58:32.430Z,15.98
2022-11-03T07:01:04.357Z,15.98
2022-11-03T07:03:35.343Z,17.73
2022-11-03T07:06:19.237Z,14.77
2022-11-03T07:08:50.926Z,15.65
2022-11-03T07:11:26.153Z,15.80
2022-11-03T07:14:10.373Z,15.35
2022-11-03T07:16:38.280Z,15.77
2022-11-03T07:19:15.003Z,17.58
2022-11-03T07:21:49.136Z,19.52
2022-11-03T07:24:27.598Z,19.23
2022-11-03T07:27:13.239Z,15.75
2022-11-03T07:29:43.021Z,15.45
2022-11-03T07:32:20.275Z,14.52
2022-11-03T07:34:49.602Z,16.67
2022-11-03T07:37:26.276Z,15.00
2022-11-03T07:39:54.125Z,15.93
2022-11-03T07:42:27.355Z,13.52
2022-11-03T07:45:00.884Z,13.75
2022-11-03T07:47:30.014Z,12.43
2022-11-03T07:49:57.705Z,11.63
2022-11-03T07:52:27.102Z,11.07
2022-11-03T07:54:59.261Z,10.48
2022-11-03T07:57:30.651Z,10.43
2022-11-03T08:00:08.936Z,10.13
2022-11-03T08:02:49.484Z,8.57
2022-11-03T08:05:17.285Z,8.38
2022-11-03T08:07:45.289Z,7.13
2022-11-03T08:10:13.831Z,6.32
2022-11-03T08:12:41.827Z,6.43
2022-11-03T08:15:10.263Z,5.85
2022-11-03T08:17:38.266Z,6.53
2022-11-03T08:20:06.342Z,6.45
2022-11-03T08:22:34.498Z,6.88
2022-11-03T08:25:02.213Z,6.43
2022-11-03T08:27:30.214Z,5.95
2022-11-03T08:29:57.990Z,5.93
2022-11-03T08:32:26.058Z,5.20
2022-11-03T08:34:53.671Z,6.03
2022-11-03T08:37:21.759Z,5.50
2022-11-03T08:39:49.457Z,5.72
2022-11-03T08:42:17.451Z,5.63
2022-11-03T08:44:45.202Z,5.03
2022-11-03T08:47:13.242Z,5.43
2022-11-03T08:49:41.440Z,5.10
2022-11-03T08:52:09.340Z,4.88
2022-11-03T08:54:37.037Z,4.93
2022-11-03T08:57:05.269Z,4.78
2022-11-03T08:59:33.051Z,4.88
2022-11-03T09:02:01.138Z,5.00
2022-11-03T09:04:28.985Z,4.40
2022-11-03T09:06:57.019Z,4.95
2022-11-03T09:12:12.722Z,4.30
2022-11-03T09:14:40.460Z,5.25
2022-11-03T09:17:08.235Z,4.80
2022-11-03T09:19:36.276Z,5.72
2022-11-03T09:22:04.213Z,4.95
2022-11-03T09:24:31.920Z,8.10
2022-11-03T09:27:02.229Z,5.50
2022-11-03T09:29:51.720Z,4.55
2022-11-03T09:32:23.033Z,5.03
2022-11-03T09:34:51.528Z,4.72
2022-11-03T09:37:19.670Z,5.25
2022-11-03T09:39:47.290Z,5.13
2022-11-03T09:42:17.253Z,4.63
2022-11-03T09:44:46.999Z,5.50
2022-11-03T09:47:25.140Z,4.78
2022-11-03T09:49:53.256Z,4.70
2022-11-03T09:52:24.304Z,4.28
2022-11-03T09:54:55.694Z,4.15
2022-11-03T09:57:26.371Z,5.15
2022-11-03T09:59:54.615Z,4.15
2022-11-03T10:02:33.067Z,4.13
2022-11-03T10:05:06.959Z,3.53
2022-11-03T10:07:38.260Z,3.60
2022-11-03T10:10:06.457Z,3.55
2022-11-03T10:12:37.958Z,4.20
2022-11-03T10:15:07.391Z,4.15
2022-11-03T10:17:35.379Z,3.83
2022-11-03T10:20:06.993Z,4.20
2022-11-03T10:22:38.445Z,4.55
2022-11-03T10:25:32.979Z,4.50
2022-11-03T10:28:14.550Z,4.05
2022-11-03T10:31:12.198Z,4.25
2022-11-03T10:33:51.959Z,5.13
2022-11-03T10:36:20.207Z,4.10
2022-11-03T10:38:48.587Z,4.22
2022-11-03T10:41:17.476Z,4.00
2022-11-03T10:43:59.486Z,3.70
2022-11-03T10:49:18.568Z,3.70
2022-11-03T10:51:51.125Z,3.20
2022-11-03T10:54:23.917Z,3.40
2022-11-03T10:56:52.740Z,3.30
2022-11-03T10:59:31.888Z,3.58
2022-11-03T11:02:01.237Z,3.78
2022-11-03T11:04:32.361Z,3.25
2022-11-03T11:07:00.401Z,4.25
2022-11-03T11:09:29.135Z,3.53
2022-11-03T11:12:02.439Z,4.03
2022-11-03T11:14:30.197Z,4.10
2022-11-03T11:16:59.916Z,3.42
2022-11-03T11:19:29.430Z,3.72
2022-11-03T11:21:57.324Z,3.88
2022-11-03T11:24:43.475Z,4.13
2022-11-03T11:27:31.924Z,3.95
2022-11-03T11:30:00.878Z,3.67
2022-11-03T11:32:46.994Z,3.13
2022-11-03T11:35:25.027Z,3.47
2022-11-03T11:37:54.291Z,3.15
2022-11-03T11:40:24.711Z,3.50
2022-11-03T11:43:11.176Z,3.15
2022-11-03T11:46:16.690Z,3.10
2022-11-03T11:51:12.672Z,2.72
2022-11-03T11:53:44.834Z,2.50
2022-11-03T11:56:16.592Z,2.65
2022-11-03T11:58:55.470Z,3.35
2022-11-03T12:01:37.911Z,3.00
2022-11-03T12:04:31.558Z,2.80
2022-11-03T12:06:59.983Z,2.65
2022-11-03T12:09:29.075Z,2.85
2022-11-03T12:12:07.059Z,2.78
2022-11-03T12:14:38.982Z,3.25
2022-11-03T12:17:19.192Z,2.30
2022-11-03T12:19:54.420Z,2.78
2022-11-03T12:22:26.023Z,2.90
2022-11-03T12:24:55.625Z,2.65
2022-11-03T12:27:26.051Z,3.40
2022-11-03T12:29:55.468Z,3.03
2022-11-03T12:32:33.085Z,2.85
2022-11-03T12:35:02.884Z,2.60
2022-11-03T12:37:30.852Z,2.50
2022-11-03T12:39:58.510Z,2.95
2022-11-03T12:42:26.326Z,2.80
2022-11-03T12:44:54.533Z,2.55
2022-11-03T12:47:22.301Z,2.42
2022-11-03T12:49:50.000Z,2.50
2022-11-03T12:52:17.976Z,2.72
2022-11-03T12:54:45.698Z,2.58
2022-11-03T12:57:14.014Z,2.70
2022-11-03T12:59:41.798Z,2.70
2022-11-03T13:02:11.913Z,2.58
2022-11-03T13:04:39.773Z,3.08
2022-11-03T13:07:07.725Z,2.40
2022-11-03T13:09:36.074Z,2.72
2022-11-03T13:12:22.712Z,2.92
2022-11-03T13:14:50.389Z,2.70
2022-11-03T13:17:18.369Z,3.55
2022-11-03T13:19:46.006Z,2.33
2022-11-03T13:22:13.947Z,2.50
2022-11-03T13:24:41.673Z,3.00
2022-11-03T13:27:10.124Z,3.53
2022-11-03T13:29:37.908Z,2.58
2022-11-03T13:32:06.311Z,2.72
2022-11-03T13:34:34.049Z,2.53
2022-11-03T13:37:02.090Z,3.05
2022-11-03T13:39:29.782Z,2.67
2022-11-03T13:41:57.823Z,2.85
2022-11-03T13:44:25.480Z,2.97
2022-11-03T13:46:54.151Z,2.78
2022-11-03T13:49:59.278Z,2.80
2022-11-03T13:52:10.557Z,3.22
2022-11-03T14:00:16.844Z,2.67
2022-11-03T14:05:32.592Z,3.00
2022-11-03T14:08:00.516Z,3.13
2022-11-03T14:10:28.199Z,2.60
2022-11-03T14:12:56.234Z,2.72
2022-11-03T14:15:23.866Z,2.88
2022-11-03T14:17:51.914Z,2.42
2022-11-03T14:20:19.726Z,2.63
2022-11-03T14:22:47.777Z,2.50
2022-11-03T14:25:15.610Z,2.90
2022-11-03T14:27:43.602Z,3.13
2022-11-03T14:30:12.368Z,2.58
2022-11-03T14:32:40.470Z,3.28
2022-11-03T14:35:08.629Z,2.47
2022-11-03T14:37:36.744Z,2.80
2022-11-03T14:40:05.575Z,2.40
2022-11-03T14:42:33.576Z,2.97
2022-11-03T14:45:01.192Z,2.50
2022-11-03T14:47:31.464Z,2.58
2022-11-03T14:49:59.567Z,2.67
2022-11-03T14:52:27.246Z,2.58
2022-11-03T14:54:55.152Z,2.47
2022-11-03T14:57:22.847Z,2.72
2022-11-03T14:59:53.521Z,3.05
2022-11-03T15:02:21.609Z,2.97
2022-11-03T15:04:49.666Z,3.70
2022-11-03T15:07:17.337Z,4.25
2022-11-03T15:09:45.027Z,18.58
2022-11-03T15:12:12.970Z,31.25
2022-11-03T15:14:40.652Z,26.90
2022-11-03T15:17:08.313Z,20.38
2022-11-03T15:19:36.394Z,7.90
2022-11-03T15:22:04.054Z,19.88
2022-11-03T15:27:19.868Z,14.57
2022-11-03T15:29:47.846Z,9.40
2022-11-03T15:32:15.564Z,11.88
2022-11-03T15:34:43.505Z,10.70
2022-11-03T15:37:11.422Z,8.68
2022-11-03T15:39:39.355Z,9.55
2022-11-03T15:42:07.717Z,7.22
2022-11-03T15:44:35.725Z,9.27
2022-11-03T15:47:03.407Z,10.50
2022-11-03T15:49:31.357Z,8.52
2022-11-03T15:51:59.145Z,7.95
2022-11-03T15:54:27.160Z,6.22
2022-11-03T15:56:54.837Z,6.80
2022-11-03T15:59:22.785Z,7.90
2022-11-03T16:01:50.580Z,7.30
2022-11-03T16:04:18.788Z,29.60
2022-11-03T16:07:06.835Z,29.73
2022-11-03T16:09:34.583Z,28.88
2022-11-03T16:12:02.760Z,35.78
2022-11-03T16:14:30.788Z,35.42
2022-11-03T16:16:58.807Z,36.10
2022-11-03T16:19:26.678Z,38.72
2022-11-03T16:21:54.595Z,35.13
2022-11-03T16:24:22.733Z,34.88
2022-11-03T16:26:53.338Z,34.03
2022-11-03T16:29:21.009Z,34.40
2022-11-03T16:31:50.330Z,49.30
2022-11-03T16:34:18.379Z,51.80
2022-11-03T16:36:46.255Z,52.95
2022-11-03T16:39:13.949Z,46.28
2022-11-03T16:41:41.867Z,43.33
2022-11-03T16:44:09.584Z,45.40
2022-11-03T16:46:37.645Z,47.10
2022-11-03T16:49:05.378Z,43.95
2022-11-03T16:51:33.315Z,39.00
2022-11-03T16:54:01.093Z,39.40
2022-11-03T16:56:29.025Z,39.53
2022-11-03T16:58:56.724Z,63.38
2022-11-03T17:01:24.658Z,96.70
2022-11-03T17:03:52.571Z,66.75
2022-11-03T17:06:20.583Z,65.53
2022-11-03T17:08:53.293Z,64.72
2022-11-03T17:11:36.235Z,64.38
2022-11-03T17:14:06.253Z,61.58
2022-11-03T17:16:34.760Z,59.45
2022-11-03T17:19:02.547Z,61.92
2022-11-03T17:21:30.848Z,55.05
2022-11-03T17:23:59.952Z,54.50
2022-11-03T17:26:53.046Z,55.47
2022-11-03T17:29:28.790Z,56.53
2022-11-03T17:31:57.239Z,56.30
2022-11-03T17:34:25.840Z,58.80
2022-11-03T17:36:54.063Z,61.85
2022-11-03T17:39:30.246Z,60.03
2022-11-03T17:42:24.816Z,64.13
2022-11-03T17:44:55.489Z,74.75
2022-11-03T17:47:24.464Z,102.93
2022-11-03T17:49:52.245Z,84.50
2022-11-03T17:52:28.199Z,76.03
2022-11-03T17:55:00.624Z,82.50
2022-11-03T17:57:28.963Z,60.78
2022-11-03T17:59:59.418Z,58.55
2022-11-03T18:02:30.825Z,49.33
2022-11-03T18:05:20.242Z,49.90
2022-11-03T18:07:50.408Z,51.00
2022-11-03T18:10:18.060Z,55.20
2022-11-03T18:13:07.564Z,53.72
2022-11-03T18:15:39.744Z,49.10
2022-11-03T18:18:23.067Z,50.78
2022-11-03T18:20:53.834Z,49.15
2022-11-03T18:23:27.420Z,47.35
2022-11-03T18:25:55.520Z,37.33
2022-11-03T18:28:23.800Z,37.58
2022-11-03T18:30:54.996Z,34.38
2022-11-03T18:33:34.476Z,34.58
2022-11-03T18:36:07.060Z,40.70
2022-11-03T18:38:37.284Z,43.70
2022-11-03T18:41:25.051Z,55.63
2022-11-03T18:43:53.040Z,47.13
2022-11-03T18:46:20.861Z,42.72
2022-11-03T18:48:48.923Z,35.47
2022-11-03T18:51:16.803Z,38.92
2022-11-03T18:53:45.105Z,39.47
2022-11-03T18:56:16.275Z,41.35
2022-11-03T18:58:44.589Z,38.53
2022-11-03T19:01:22.451Z,40.80
2022-11-03T19:03:50.941Z,43.28
2022-11-03T19:06:19.027Z,43.30
2022-11-03T19:08:47.703Z,38.70
2022-11-03T19:11:15.636Z,38.10
2022-11-03T19:13:46.513Z,39.30
2022-11-03T19:16:23.709Z,36.58
2022-11-03T19:18:54.683Z,36.58
2022-11-03T19:21:24.105Z,32.58
2022-11-03T19:23:58.013Z,34.72
2022-11-03T19:29:02.024Z,38.15
2022-11-03T19:31:48.834Z,37.95
2022-11-03T19:34:23.859Z,36.78
2022-11-03T19:36:52.581Z,35.50
2022-11-03T19:39:23.812Z,35.95
2022-11-03T19:42:10.257Z,33.95
2022-11-03T19:44:38.611Z,43.22
2022-11-03T19:47:06.809Z,49.20
2022-11-03T19:49:35.137Z,42.33
2022-11-03T19:52:02.897Z,31.92
2022-11-03T19:54:30.856Z,31.83
2022-11-03T19:56:58.540Z,32.03
2022-11-03T19:59:26.520Z,32.78
2022-11-03T20:01:54.540Z,30.05
2022-11-03T20:04:22.635Z,29.15
2022-11-03T20:06:50.337Z,28.38
2022-11-03T20:09:19.064Z,31.05
2022-11-03T20:11:47.045Z,31.05
2022-11-03T20:14:26.104Z,33.17
2022-11-03T20:17:14.547Z,27.27
2022-11-03T20:19:42.645Z,25.65
2022-11-03T20:22:16.942Z,23.00
2022-11-03T20:24:46.605Z,24.38
2022-11-03T20:27:21.495Z,22.58
2022-11-03T20:29:49.727Z,25.00
2022-11-03T20:32:17.423Z,24.60
2022-11-03T20:34:46.669Z,23.75
2022-11-03T20:37:20.514Z,23.02
2022-11-03T20:39:49.010Z,21.65
2022-11-03T20:42:23.523Z,21.65
2022-11-03T20:44:51.858Z,21.25
2022-11-03T20:47:20.041Z,19.63
2022-11-03T20:49:48.500Z,19.40
2022-11-03T20:52:16.941Z,19.25
2022-11-03T20:54:44.726Z,19.55
2022-11-03T20:57:13.706Z,17.98
2022-11-03T20:59:41.625Z,18.35
2022-11-03T21:02:14.047Z,19.95
2022-11-03T21:04:43.308Z,20.02
2022-11-03T21:07:13.557Z,17.98
2022-11-03T21:09:41.564Z,17.05
2022-11-03T21:12:13.356Z,15.85
2022-11-03T21:15:02.129Z,18.65
2022-11-03T21:17:48.759Z,16.45
2022-11-03T21:20:16.497Z,16.23
2022-11-03T21:22:53.851Z,16.63
2022-11-03T21:25:24.091Z,15.70
2022-11-03T21:27:54.029Z,16.83
2022-11-03T21:30:22.436Z,15.52
2022-11-03T21:32:50.501Z,17.05
2022-11-03T21:35:21.884Z,17.05
2022-11-03T21:37:50.044Z,17.50
2022-11-03T21:40:18.083Z,18.20
2022-11-03T21:43:04.725Z,15.77
2022-11-03T21:45:32.444Z,16.30
2022-11-03T21:48:19.392Z,15.52
2022-11-03T21:50:47.367Z,16.30
2022-11-03T21:53:15.525Z,13.52
2022-11-03T21:55:43.263Z,14.20
2022-11-03T21:58:11.217Z,15.75
2022-11-03T22:00:38.896Z,15.02
2022-11-03T22:03:07.034Z,14.05
2022-11-03T22:05:35.015Z,14.57
2022-11-03T22:08:03.042Z,16.10
2022-11-03T22:10:30.751Z,15.38
2022-11-03T22:12:58.797Z,16.25
2022-11-03T22:15:45.277Z,16.92
2022-11-03T22:18:13.444Z,16.15
2022-11-03T22:21:00.031Z,17.02
2022-11-03T22:23:46.850Z,16.58
2022-11-03T22:26:35.353Z,15.60
2022-11-03T22:29:21.927Z,14.65
2022-11-03T22:31:49.603Z,15.80
2022-11-03T22:34:35.978Z,15.93
2022-11-03T22:37:03.685Z,14.13
2022-11-03T22:39:50.392Z,13.88
2022-11-03T22:42:36.946Z,14.00
2022-11-03T22:45:23.848Z,14.07
2022-11-03T22:47:57.151Z,13.63
2022-11-03T22:52:53.152Z,13.70
2022-11-03T22:55:21.122Z,13.40
2022-11-03T22:57:49.229Z,14.25
2022-11-03T23:00:18.457Z,13.38
2022-11-03T23:02:46.080Z,14.00
2022-11-03T23:05:14.002Z,15.25
2022-11-03T23:07:41.892Z,14.07
2022-11-03T23:10:10.073Z,15.10
2022-11-03T23:12:37.729Z,12.65
2022-11-03T23:15:24.834Z,13.93
2022-11-03T23:18:11.300Z,13.95
2022-11-03T23:20:57.697Z,14.20
2022-11-03T23:23:44.249Z,13.63
2022-11-03T23:26:12.134Z,14.18
2022-11-03T23:28:40.450Z,14.40
2022-11-03T23:31:08.826Z,13.70
2022-11-03T23:33:37.088Z,13.80
2022-11-03T23:36:10.476Z,14.07
2022-11-03T23:38:39.623Z,13.50
2022-11-03T23:41:09.786Z,14.27
2022-11-03T23:43:37.719Z,13.77
2022-11-03T23:46:24.631Z,15.50
2022-11-03T23:48:53.319Z,13.40
2022-11-03T23:51:24.159Z,13.80
2022-11-03T23:53:53.222Z,13.35
2022-11-03T23:56:42.276Z,13.10
2022-11-03T23:59:12.057Z,12.68
